sensor_id;sensor_type;location;lat;lon;timestamp;P1;durP1;ratioP1;P2;durP2;ratioP2
29280;SDS011;25048;49.590;11.026;2023-04-03T00:01:17;701.10;;;214.17;;
29280;SDS011;25048;49.590;11.026;2023-04-03T00:03:45;693.60;;;208.30;;
29280;SDS011;25048;49.590;11.026;2023-04-03T00:06:13;696.00;;;212.07;;
29280;SDS011;25048;49.590;11.026;2023-04-03T00:08:40;697.37;;;214.67;;
29280;SDS011;25048;49.590;11.026;2023-04-03T00:11:08;697.83;;;213.03;;
29280;SDS011;25048;49.590;11.026;2023-04-03T00:13:36;698.57;;;213.57;;
29280;SDS011;25048;49.590;11.026;2023-04-03T00:16:05;691.80;;;207.60;;
29280;SDS011;25048;49.590;11.026;2023-04-03T00:18:33;696.50;;;211.77;;
29280;SDS011;25048;49.590;11.026;2023-04-03T00:21:02;696.33;;;205.93;;
29280;SDS011;25048;49.590;11.026;2023-04-03T00:23:30;690.83;;;196.57;;
29280;SDS011;25048;49.590;11.026;2023-04-03T00:25:57;693.67;;;203.00;;
29280;SDS011;25048;49.590;11.026;2023-04-03T00:28:25;691.07;;;200.43;;
29280;SDS011;25048;49.590;11.026;2023-04-03T00:30:53;692.87;;;201.03;;
29280;SDS011;25048;49.590;11.026;2023-04-03T00:33:20;697.70;;;201.73;;
29280;SDS011;25048;49.590;11.026;2023-04-03T00:35:48;688.70;;;188.00;;
29280;SDS011;25048;49.590;11.026;2023-04-03T00:38:15;690.27;;;194.80;;
29280;SDS011;25048;49.590;11.026;2023-04-03T00:40:45;687.53;;;186.57;;
29280;SDS011;25048;49.590;11.026;2023-04-03T00:43:16;689.23;;;190.80;;
29280;SDS011;25048;49.590;11.026;2023-04-03T00:45:49;691.43;;;192.07;;
29280;SDS011;25048;49.590;11.026;2023-04-03T00:48:28;687.37;;;186.93;;
29280;SDS011;25048;49.590;11.026;2023-04-03T00:50:51;686.30;;;183.33;;
29280;SDS011;25048;49.590;11.026;2023-04-03T00:53:21;684.47;;;184.43;;
29280;SDS011;25048;49.590;11.026;2023-04-03T00:55:50;685.13;;;183.90;;
29280;SDS011;25048;49.590;11.026;2023-04-03T00:58:20;682.73;;;177.30;;
29280;SDS011;25048;49.590;11.026;2023-04-03T01:00:53;686.17;;;187.80;;
29280;SDS011;25048;49.590;11.026;2023-04-03T01:03:23;684.83;;;182.80;;
29280;SDS011;25048;49.590;11.026;2023-04-03T01:05:51;687.83;;;189.63;;
29280;SDS011;25048;49.590;11.026;2023-04-03T01:08:18;681.87;;;182.03;;
29280;SDS011;25048;49.590;11.026;2023-04-03T01:10:46;688.77;;;186.87;;
29280;SDS011;25048;49.590;11.026;2023-04-03T01:13:22;687.80;;;187.40;;
29280;SDS011;25048;49.590;11.026;2023-04-03T01:15:53;683.20;;;175.33;;
29280;SDS011;25048;49.590;11.026;2023-04-03T01:18:26;678.67;;;173.80;;
29280;SDS011;25048;49.590;11.026;2023-04-03T01:21:00;676.17;;;170.30;;
29280;SDS011;25048;49.590;11.026;2023-04-03T01:23:58;681.83;;;174.30;;
29280;SDS011;25048;49.590;11.026;2023-04-03T01:26:27;675.67;;;171.60;;
29280;SDS011;25048;49.590;11.026;2023-04-03T01:28:55;671.33;;;167.47;;
29280;SDS011;25048;49.590;11.026;2023-04-03T01:31:28;677.90;;;173.87;;
29280;SDS011;25048;49.590;11.026;2023-04-03T01:33:57;668.73;;;158.90;;
29280;SDS011;25048;49.590;11.026;2023-04-03T01:36:26;665.53;;;161.30;;
29280;SDS011;25048;49.590;11.026;2023-04-03T01:38:56;677.07;;;167.10;;
29280;SDS011;25048;49.590;11.026;2023-04-03T01:41:25;672.23;;;161.90;;
29280;SDS011;25048;49.590;11.026;2023-04-03T01:43:53;671.83;;;164.97;;
29280;SDS011;25048;49.590;11.026;2023-04-03T01:46:21;674.93;;;164.00;;
29280;SDS011;25048;49.590;11.026;2023-04-03T01:48:49;673.73;;;161.60;;
29280;SDS011;25048;49.590;11.026;2023-04-03T01:51:16;677.43;;;158.90;;
29280;SDS011;25048;49.590;11.026;2023-04-03T01:53:44;675.87;;;158.00;;
29280;SDS011;25048;49.590;11.026;2023-04-03T01:56:11;676.70;;;163.00;;
29280;SDS011;25048;49.590;11.026;2023-04-03T01:58:39;679.50;;;159.90;;
29280;SDS011;25048;49.590;11.026;2023-04-03T02:01:07;676.37;;;157.87;;
29280;SDS011;25048;49.590;11.026;2023-04-03T02:03:34;677.67;;;156.93;;
29280;SDS011;25048;49.590;11.026;2023-04-03T02:06:02;675.53;;;162.93;;
29280;SDS011;25048;49.590;11.026;2023-04-03T02:08:30;670.50;;;150.80;;
29280;SDS011;25048;49.590;11.026;2023-04-03T02:10:57;672.43;;;150.00;;
29280;SDS011;25048;49.590;11.026;2023-04-03T02:13:25;668.93;;;148.97;;
29280;SDS011;25048;49.590;11.026;2023-04-03T02:15:52;675.87;;;155.43;;
29280;SDS011;25048;49.590;11.026;2023-04-03T02:18:20;674.47;;;153.33;;
29280;SDS011;25048;49.590;11.026;2023-04-03T02:20:48;675.70;;;152.07;;
29280;SDS011;25048;49.590;11.026;2023-04-03T02:23:15;678.00;;;153.37;;
29280;SDS011;25048;49.590;11.026;2023-04-03T02:25:43;676.37;;;152.03;;
29280;SDS011;25048;49.590;11.026;2023-04-03T02:28:11;672.50;;;151.60;;
29280;SDS011;25048;49.590;11.026;2023-04-03T02:30:38;674.10;;;150.20;;
29280;SDS011;25048;49.590;11.026;2023-04-03T02:33:05;666.67;;;145.97;;
29280;SDS011;25048;49.590;11.026;2023-04-03T02:35:33;674.77;;;152.80;;
29280;SDS011;25048;49.590;11.026;2023-04-03T02:38:02;671.43;;;152.77;;
29280;SDS011;25048;49.590;11.026;2023-04-03T02:40:30;674.67;;;152.33;;
29280;SDS011;25048;49.590;11.026;2023-04-03T02:42:57;675.37;;;157.37;;
29280;SDS011;25048;49.590;11.026;2023-04-03T02:45:25;674.97;;;155.17;;
29280;SDS011;25048;49.590;11.026;2023-04-03T02:47:52;675.03;;;155.70;;
29280;SDS011;25048;49.590;11.026;2023-04-03T02:50:20;665.27;;;150.97;;
29280;SDS011;25048;49.590;11.026;2023-04-03T02:52:47;659.63;;;149.47;;
29280;SDS011;25048;49.590;11.026;2023-04-03T02:55:15;670.17;;;155.67;;
29280;SDS011;25048;49.590;11.026;2023-04-03T02:57:43;673.03;;;156.77;;
29280;SDS011;25048;49.590;11.026;2023-04-03T03:00:10;678.60;;;162.23;;
29280;SDS011;25048;49.590;11.026;2023-04-03T03:02:38;669.70;;;155.50;;
29280;SDS011;25048;49.590;11.026;2023-04-03T03:05:06;675.87;;;162.73;;
29280;SDS011;25048;49.590;11.026;2023-04-03T03:07:34;671.20;;;161.63;;
29280;SDS011;25048;49.590;11.026;2023-04-03T03:10:01;667.50;;;160.60;;
29280;SDS011;25048;49.590;11.026;2023-04-03T03:12:29;667.37;;;156.33;;
29280;SDS011;25048;49.590;11.026;2023-04-03T03:14:56;669.53;;;158.63;;
29280;SDS011;25048;49.590;11.026;2023-04-03T03:17:24;669.03;;;153.33;;
29280;SDS011;25048;49.590;11.026;2023-04-03T03:19:52;672.00;;;163.60;;
29280;SDS011;25048;49.590;11.026;2023-04-03T03:22:19;673.33;;;165.60;;
29280;SDS011;25048;49.590;11.026;2023-04-03T03:24:47;671.83;;;159.60;;
29280;SDS011;25048;49.590;11.026;2023-04-03T03:27:14;678.83;;;166.80;;
29280;SDS011;25048;49.590;11.026;2023-04-03T03:29:42;663.70;;;156.47;;
29280;SDS011;25048;49.590;11.026;2023-04-03T03:32:10;670.10;;;157.17;;
29280;SDS011;25048;49.590;11.026;2023-04-03T03:34:37;667.07;;;158.37;;
29280;SDS011;25048;49.590;11.026;2023-04-03T03:37:05;671.57;;;161.70;;
29280;SDS011;25048;49.590;11.026;2023-04-03T03:39:32;672.93;;;161.33;;
29280;SDS011;25048;49.590;11.026;2023-04-03T03:42:00;674.30;;;160.13;;
29280;SDS011;25048;49.590;11.026;2023-04-03T03:44:27;676.33;;;162.97;;
29280;SDS011;25048;49.590;11.026;2023-04-03T03:46:55;674.17;;;160.57;;
29280;SDS011;25048;49.590;11.026;2023-04-03T03:49:23;672.53;;;160.37;;
29280;SDS011;25048;49.590;11.026;2023-04-03T03:51:50;671.73;;;158.43;;
29280;SDS011;25048;49.590;11.026;2023-04-03T03:54:18;676.40;;;161.33;;
29280;SDS011;25048;49.590;11.026;2023-04-03T03:56:45;682.57;;;166.87;;
29280;SDS011;25048;49.590;11.026;2023-04-03T03:59:13;683.60;;;166.87;;
29280;SDS011;25048;49.590;11.026;2023-04-03T04:01:41;673.80;;;158.43;;
29280;SDS011;25048;49.590;11.026;2023-04-03T04:04:08;667.87;;;149.53;;
29280;SDS011;25048;49.590;11.026;2023-04-03T04:06:36;674.60;;;156.13;;
29280;SDS011;25048;49.590;11.026;2023-04-03T04:09:03;665.93;;;153.20;;
29280;SDS011;25048;49.590;11.026;2023-04-03T04:11:31;678.83;;;165.43;;
29280;SDS011;25048;49.590;11.026;2023-04-03T04:13:59;678.50;;;162.20;;
29280;SDS011;25048;49.590;11.026;2023-04-03T04:16:26;673.60;;;157.47;;
29280;SDS011;25048;49.590;11.026;2023-04-03T04:18:54;679.63;;;157.27;;
29280;SDS011;25048;49.590;11.026;2023-04-03T04:21:21;687.30;;;164.03;;
29280;SDS011;25048;49.590;11.026;2023-04-03T04:23:49;679.73;;;156.70;;
29280;SDS011;25048;49.590;11.026;2023-04-03T04:26:16;679.33;;;154.80;;
29280;SDS011;25048;49.590;11.026;2023-04-03T04:28:44;673.47;;;152.43;;
29280;SDS011;25048;49.590;11.026;2023-04-03T04:31:11;677.57;;;151.87;;
29280;SDS011;25048;49.590;11.026;2023-04-03T04:33:39;673.40;;;146.63;;
29280;SDS011;25048;49.590;11.026;2023-04-03T04:36:06;687.27;;;160.60;;
29280;SDS011;25048;49.590;11.026;2023-04-03T04:38:34;683.43;;;154.50;;
29280;SDS011;25048;49.590;11.026;2023-04-03T04:41:01;669.83;;;148.33;;
29280;SDS011;25048;49.590;11.026;2023-04-03T04:43:29;674.33;;;147.90;;
29280;SDS011;25048;49.590;11.026;2023-04-03T04:46:06;673.43;;;145.53;;
29280;SDS011;25048;49.590;11.026;2023-04-03T04:48:39;665.47;;;142.17;;
29280;SDS011;25048;49.590;11.026;2023-04-03T04:51:07;663.93;;;137.63;;
29280;SDS011;25048;49.590;11.026;2023-04-03T04:53:34;668.73;;;139.03;;
29280;SDS011;25048;49.590;11.026;2023-04-03T04:56:02;666.60;;;139.90;;
29280;SDS011;25048;49.590;11.026;2023-04-03T04:58:29;665.70;;;140.20;;
29280;SDS011;25048;49.590;11.026;2023-04-03T05:01:04;669.20;;;143.07;;
29280;SDS011;25048;49.590;11.026;2023-04-03T05:03:33;669.27;;;142.27;;
29280;SDS011;25048;49.590;11.026;2023-04-03T05:06:01;677.23;;;145.50;;
29280;SDS011;25048;49.590;11.026;2023-04-03T05:08:29;678.63;;;149.63;;
29280;SDS011;25048;49.590;11.026;2023-04-03T05:10:56;675.50;;;143.70;;
29280;SDS011;25048;49.590;11.026;2023-04-03T05:13:24;670.00;;;140.03;;
29280;SDS011;25048;49.590;11.026;2023-04-03T05:15:52;679.17;;;146.37;;
29280;SDS011;25048;49.590;11.026;2023-04-03T05:18:19;668.50;;;135.40;;
29280;SDS011;25048;49.590;11.026;2023-04-03T05:20:48;671.33;;;140.23;;
29280;SDS011;25048;49.590;11.026;2023-04-03T05:23:16;675.23;;;143.23;;
29280;SDS011;25048;49.590;11.026;2023-04-03T05:25:44;670.37;;;139.70;;
29280;SDS011;25048;49.590;11.026;2023-04-03T05:28:12;676.83;;;147.43;;
29280;SDS011;25048;49.590;11.026;2023-04-03T05:30:40;676.07;;;145.50;;
29280;SDS011;25048;49.590;11.026;2023-04-03T05:33:08;674.33;;;143.43;;
29280;SDS011;25048;49.590;11.026;2023-04-03T05:35:36;674.00;;;144.40;;
29280;SDS011;25048;49.590;11.026;2023-04-03T05:38:07;676.40;;;149.47;;
29280;SDS011;25048;49.590;11.026;2023-04-03T05:40:34;674.60;;;149.97;;
29280;SDS011;25048;49.590;11.026;2023-04-03T05:43:02;700.90;;;160.67;;
29280;SDS011;25048;49.590;11.026;2023-04-03T05:45:30;676.73;;;148.60;;
29280;SDS011;25048;49.590;11.026;2023-04-03T05:47:58;675.77;;;149.30;;
29280;SDS011;25048;49.590;11.026;2023-04-03T05:50:26;679.03;;;152.23;;
29280;SDS011;25048;49.590;11.026;2023-04-03T05:52:55;677.40;;;153.20;;
29280;SDS011;25048;49.590;11.026;2023-04-03T05:55:24;677.90;;;155.37;;
29280;SDS011;25048;49.590;11.026;2023-04-03T05:57:53;684.80;;;160.33;;
29280;SDS011;25048;49.590;11.026;2023-04-03T06:00:21;703.73;;;179.10;;
29280;SDS011;25048;49.590;11.026;2023-04-03T06:02:48;707.30;;;184.03;;
29280;SDS011;25048;49.590;11.026;2023-04-03T06:05:17;683.17;;;162.30;;
29280;SDS011;25048;49.590;11.026;2023-04-03T06:07:44;686.40;;;169.20;;
29280;SDS011;25048;49.590;11.026;2023-04-03T06:10:15;682.60;;;167.70;;
29280;SDS011;25048;49.590;11.026;2023-04-03T06:12:41;686.30;;;172.20;;
29280;SDS011;25048;49.590;11.026;2023-04-03T06:15:08;681.10;;;169.50;;
29280;SDS011;25048;49.590;11.026;2023-04-03T06:17:37;680.83;;;169.70;;
29280;SDS011;25048;49.590;11.026;2023-04-03T06:20:05;686.83;;;178.23;;
29280;SDS011;25048;49.590;11.026;2023-04-03T06:22:33;687.50;;;182.27;;
29280;SDS011;25048;49.590;11.026;2023-04-03T06:25:02;687.30;;;182.70;;
29280;SDS011;25048;49.590;11.026;2023-04-03T06:27:30;695.17;;;194.03;;
29280;SDS011;25048;49.590;11.026;2023-04-03T06:29:58;693.20;;;191.97;;
29280;SDS011;25048;49.590;11.026;2023-04-03T06:32:27;689.33;;;191.23;;
29280;SDS011;25048;49.590;11.026;2023-04-03T06:34:54;684.93;;;185.60;;
29280;SDS011;25048;49.590;11.026;2023-04-03T06:37:23;688.63;;;193.47;;
29280;SDS011;25048;49.590;11.026;2023-04-03T06:39:54;689.23;;;192.97;;
29280;SDS011;25048;49.590;11.026;2023-04-03T06:42:22;686.17;;;185.40;;
29280;SDS011;25048;49.590;11.026;2023-04-03T06:44:50;688.90;;;190.37;;
29280;SDS011;25048;49.590;11.026;2023-04-03T06:47:18;693.33;;;194.10;;
29280;SDS011;25048;49.590;11.026;2023-04-03T06:49:46;691.57;;;198.30;;
29280;SDS011;25048;49.590;11.026;2023-04-03T06:52:13;685.97;;;190.60;;
29280;SDS011;25048;49.590;11.026;2023-04-03T06:54:41;688.97;;;195.13;;
29280;SDS011;25048;49.590;11.026;2023-04-03T06:57:08;689.47;;;200.07;;
29280;SDS011;25048;49.590;11.026;2023-04-03T06:59:37;692.17;;;198.17;;
29280;SDS011;25048;49.590;11.026;2023-04-03T07:02:06;692.83;;;197.03;;
29280;SDS011;25048;49.590;11.026;2023-04-03T07:04:33;687.57;;;190.83;;
29280;SDS011;25048;49.590;11.026;2023-04-03T07:07:01;691.00;;;197.03;;
29280;SDS011;25048;49.590;11.026;2023-04-03T07:09:29;688.43;;;197.03;;
29280;SDS011;25048;49.590;11.026;2023-04-03T07:11:56;684.97;;;196.30;;
29280;SDS011;25048;49.590;11.026;2023-04-03T07:14:24;687.60;;;196.40;;
29280;SDS011;25048;49.590;11.026;2023-04-03T07:16:52;690.20;;;199.77;;
29280;SDS011;25048;49.590;11.026;2023-04-03T07:19:19;698.57;;;214.83;;
29280;SDS011;25048;49.590;11.026;2023-04-03T07:21:47;689.03;;;211.27;;
29280;SDS011;25048;49.590;11.026;2023-04-03T07:24:14;698.83;;;218.37;;
29280;SDS011;25048;49.590;11.026;2023-04-03T07:26:42;702.67;;;227.70;;
29280;SDS011;25048;49.590;11.026;2023-04-03T07:29:10;706.17;;;235.13;;
29280;SDS011;25048;49.590;11.026;2023-04-03T07:31:38;696.90;;;222.43;;
29280;SDS011;25048;49.590;11.026;2023-04-03T07:34:07;700.40;;;232.33;;
29280;SDS011;25048;49.590;11.026;2023-04-03T07:36:34;709.60;;;239.53;;
29280;SDS011;25048;49.590;11.026;2023-04-03T07:39:02;708.70;;;238.40;;
29280;SDS011;25048;49.590;11.026;2023-04-03T07:41:29;706.60;;;245.90;;
29280;SDS011;25048;49.590;11.026;2023-04-03T07:43:57;717.80;;;252.50;;
29280;SDS011;25048;49.590;11.026;2023-04-03T07:46:24;710.27;;;249.70;;
29280;SDS011;25048;49.590;11.026;2023-04-03T07:48:52;705.63;;;242.60;;
29280;SDS011;25048;49.590;11.026;2023-04-03T07:51:22;704.50;;;242.70;;
29280;SDS011;25048;49.590;11.026;2023-04-03T07:53:51;700.33;;;234.03;;
29280;SDS011;25048;49.590;11.026;2023-04-03T07:56:21;708.30;;;251.60;;
29280;SDS011;25048;49.590;11.026;2023-04-03T07:58:48;704.03;;;255.30;;
29280;SDS011;25048;49.590;11.026;2023-04-03T08:01:16;708.00;;;254.40;;
29280;SDS011;25048;49.590;11.026;2023-04-03T08:03:43;705.90;;;251.07;;
29280;SDS011;25048;49.590;11.026;2023-04-03T08:06:11;712.27;;;261.63;;
29280;SDS011;25048;49.590;11.026;2023-04-03T08:08:43;707.63;;;265.67;;
29280;SDS011;25048;49.590;11.026;2023-04-03T08:11:11;705.67;;;260.97;;
29280;SDS011;25048;49.590;11.026;2023-04-03T08:13:39;710.33;;;270.80;;
29280;SDS011;25048;49.590;11.026;2023-04-03T08:16:13;716.20;;;280.27;;
29280;SDS011;25048;49.590;11.026;2023-04-03T08:18:49;712.50;;;272.87;;
29280;SDS011;25048;49.590;11.026;2023-04-03T08:21:17;724.10;;;288.80;;
29280;SDS011;25048;49.590;11.026;2023-04-03T08:23:47;720.17;;;282.60;;
29280;SDS011;25048;49.590;11.026;2023-04-03T08:26:17;709.63;;;262.73;;
29280;SDS011;25048;49.590;11.026;2023-04-03T08:28:47;709.47;;;268.87;;
29280;SDS011;25048;49.590;11.026;2023-04-03T08:31:16;705.17;;;270.80;;
29280;SDS011;25048;49.590;11.026;2023-04-03T08:33:45;707.70;;;272.03;;
29280;SDS011;25048;49.590;11.026;2023-04-03T08:36:25;711.60;;;282.03;;
29280;SDS011;25048;49.590;11.026;2023-04-03T08:38:45;706.80;;;276.60;;
29280;SDS011;25048;49.590;11.026;2023-04-03T08:41:36;714.37;;;294.17;;
29280;SDS011;25048;49.590;11.026;2023-04-03T08:52:12;717.57;;;296.63;;
29280;SDS011;25048;49.590;11.026;2023-04-03T08:54:55;714.77;;;294.43;;
29280;SDS011;25048;49.590;11.026;2023-04-03T08:57:30;717.13;;;297.60;;
29280;SDS011;25048;49.590;11.026;2023-04-03T08:59:52;727.93;;;308.60;;
29280;SDS011;25048;49.590;11.026;2023-04-03T09:02:24;722.00;;;306.97;;
29280;SDS011;25048;49.590;11.026;2023-04-03T09:04:53;730.13;;;314.17;;
29280;SDS011;25048;49.590;11.026;2023-04-03T09:07:36;724.27;;;303.60;;
29280;SDS011;25048;49.590;11.026;2023-04-03T09:10:10;722.37;;;310.33;;
29280;SDS011;25048;49.590;11.026;2023-04-03T09:12:38;733.00;;;323.13;;
29280;SDS011;25048;49.590;11.026;2023-04-03T09:15:21;728.23;;;322.27;;
29280;SDS011;25048;49.590;11.026;2023-04-03T09:17:53;729.23;;;329.07;;
29280;SDS011;25048;49.590;11.026;2023-04-03T09:20:38;733.67;;;341.87;;
29280;SDS011;25048;49.590;11.026;2023-04-03T09:23:24;724.77;;;324.27;;
29280;SDS011;25048;49.590;11.026;2023-04-03T09:25:53;735.63;;;334.80;;
29280;SDS011;25048;49.590;11.026;2023-04-03T09:28:23;738.57;;;338.30;;
29280;SDS011;25048;49.590;11.026;2023-04-03T09:30:57;732.30;;;341.33;;
29280;SDS011;25048;49.590;11.026;2023-04-03T09:33:21;731.10;;;341.63;;
29280;SDS011;25048;49.590;11.026;2023-04-03T09:35:49;723.57;;;325.97;;
29280;SDS011;25048;49.590;11.026;2023-04-03T09:38:22;735.60;;;346.07;;
29280;SDS011;25048;49.590;11.026;2023-04-03T09:41:02;731.70;;;346.17;;
29280;SDS011;25048;49.590;11.026;2023-04-03T09:43:20;736.67;;;354.93;;
29280;SDS011;25048;49.590;11.026;2023-04-03T09:45:50;737.17;;;354.00;;
29280;SDS011;25048;49.590;11.026;2023-04-03T09:48:19;735.40;;;348.20;;
29280;SDS011;25048;49.590;11.026;2023-04-03T09:53:29;725.43;;;337.37;;
29280;SDS011;25048;49.590;11.026;2023-04-03T09:59:31;729.40;;;350.63;;
29280;SDS011;25048;49.590;11.026;2023-04-03T10:04:18;722.80;;;336.33;;
29280;SDS011;25048;49.590;11.026;2023-04-03T10:06:46;725.97;;;331.47;;
29280;SDS011;25048;49.590;11.026;2023-04-03T10:09:21;725.77;;;337.07;;
29280;SDS011;25048;49.590;11.026;2023-04-03T10:12:02;730.37;;;337.50;;
29280;SDS011;25048;49.590;11.026;2023-04-03T10:14:36;735.23;;;338.83;;
29280;SDS011;25048;49.590;11.026;2023-04-03T10:19:55;731.77;;;351.27;;
29280;SDS011;25048;49.590;11.026;2023-04-03T10:27:53;736.23;;;365.17;;
29280;SDS011;25048;49.590;11.026;2023-04-03T10:33:29;732.93;;;354.17;;
29280;SDS011;25048;49.590;11.026;2023-04-03T10:36:17;733.53;;;352.73;;
29280;SDS011;25048;49.590;11.026;2023-04-03T10:39:03;734.80;;;351.70;;
29280;SDS011;25048;49.590;11.026;2023-04-03T10:42:01;725.40;;;346.33;;
29280;SDS011;25048;49.590;11.026;2023-04-03T10:50:24;744.73;;;397.77;;
29280;SDS011;25048;49.590;11.026;2023-04-03T10:53:12;749.10;;;403.57;;
29280;SDS011;25048;49.590;11.026;2023-04-03T10:58:20;748.67;;;405.23;;
29280;SDS011;25048;49.590;11.026;2023-04-03T11:01:12;749.10;;;412.73;;
29280;SDS011;25048;49.590;11.026;2023-04-03T11:03:40;754.67;;;423.17;;
29280;SDS011;25048;49.590;11.026;2023-04-03T11:06:13;752.77;;;424.60;;
29280;SDS011;25048;49.590;11.026;2023-04-03T11:09:03;760.37;;;434.37;;
29280;SDS011;25048;49.590;11.026;2023-04-03T11:11:48;766.33;;;452.20;;
29280;SDS011;25048;49.590;11.026;2023-04-03T11:14:28;769.00;;;476.87;;
29280;SDS011;25048;49.590;11.026;2023-04-03T11:19:59;772.50;;;486.33;;
29280;SDS011;25048;49.590;11.026;2023-04-03T11:22:37;771.40;;;475.30;;
29280;SDS011;25048;49.590;11.026;2023-04-03T11:27:44;786.83;;;514.73;;
29280;SDS011;25048;49.590;11.026;2023-04-03T11:30:19;783.87;;;520.63;;
29280;SDS011;25048;49.590;11.026;2023-04-03T11:32:54;782.00;;;529.57;;
29280;SDS011;25048;49.590;11.026;2023-04-03T11:35:25;784.47;;;529.20;;
29280;SDS011;25048;49.590;11.026;2023-04-03T11:37:53;782.53;;;514.80;;
29280;SDS011;25048;49.590;11.026;2023-04-03T11:40:24;789.87;;;537.80;;
29280;SDS011;25048;49.590;11.026;2023-04-03T11:42:53;795.00;;;554.27;;
29280;SDS011;25048;49.590;11.026;2023-04-03T11:47:54;799.77;;;565.33;;
29280;SDS011;25048;49.590;11.026;2023-04-03T11:55:44;800.93;;;574.40;;
29280;SDS011;25048;49.590;11.026;2023-04-03T11:58:15;799.23;;;578.90;;
29280;SDS011;25048;49.590;11.026;2023-04-03T12:11:21;804.63;;;591.27;;
29280;SDS011;25048;49.590;11.026;2023-04-03T12:16:33;817.43;;;628.90;;
29280;SDS011;25048;49.590;11.026;2023-04-03T12:24:43;807.47;;;625.07;;
29280;SDS011;25048;49.590;11.026;2023-04-03T12:27:24;807.30;;;621.60;;
29280;SDS011;25048;49.590;11.026;2023-04-03T12:32:41;799.43;;;582.70;;
29280;SDS011;25048;49.590;11.026;2023-04-03T12:46:19;795.63;;;580.70;;
29280;SDS011;25048;49.590;11.026;2023-04-03T12:48:49;784.63;;;554.70;;
29280;SDS011;25048;49.590;11.026;2023-04-03T12:51:34;788.40;;;560.77;;
29280;SDS011;25048;49.590;11.026;2023-04-03T12:54:03;792.27;;;571.23;;
29280;SDS011;25048;49.590;11.026;2023-04-03T12:56:32;787.63;;;565.33;;
29280;SDS011;25048;49.590;11.026;2023-04-03T12:59:16;789.83;;;575.70;;
29280;SDS011;25048;49.590;11.026;2023-04-03T13:01:56;787.93;;;582.40;;
29280;SDS011;25048;49.590;11.026;2023-04-03T13:04:25;808.13;;;620.70;;
29280;SDS011;25048;49.590;11.026;2023-04-03T13:06:54;815.60;;;634.60;;
29280;SDS011;25048;49.590;11.026;2023-04-03T13:09:23;817.20;;;639.97;;
29280;SDS011;25048;49.590;11.026;2023-04-03T13:11:57;809.93;;;630.03;;
29280;SDS011;25048;49.590;11.026;2023-04-03T13:14:32;804.73;;;616.93;;
29280;SDS011;25048;49.590;11.026;2023-04-03T13:17:04;801.10;;;584.63;;
29280;SDS011;25048;49.590;11.026;2023-04-03T13:19:38;803.77;;;602.83;;
29280;SDS011;25048;49.590;11.026;2023-04-03T13:22:10;812.13;;;615.40;;
29280;SDS011;25048;49.590;11.026;2023-04-03T13:24:53;815.33;;;632.20;;
29280;SDS011;25048;49.590;11.026;2023-04-03T13:27:23;837.03;;;663.40;;
29280;SDS011;25048;49.590;11.026;2023-04-03T13:29:52;824.07;;;657.23;;
29280;SDS011;25048;49.590;11.026;2023-04-03T13:32:21;819.00;;;641.77;;
29280;SDS011;25048;49.590;11.026;2023-04-03T13:34:51;835.33;;;665.77;;
29280;SDS011;25048;49.590;11.026;2023-04-03T13:37:33;821.17;;;642.90;;
29280;SDS011;25048;49.590;11.026;2023-04-03T13:40:10;816.40;;;628.70;;
29280;SDS011;25048;49.590;11.026;2023-04-03T13:42:36;822.03;;;633.90;;
29280;SDS011;25048;49.590;11.026;2023-04-03T13:47:39;831.27;;;662.13;;
29280;SDS011;25048;49.590;11.026;2023-04-03T13:52:45;850.70;;;716.63;;
29280;SDS011;25048;49.590;11.026;2023-04-03T13:57:55;853.30;;;739.23;;
29280;SDS011;25048;49.590;11.026;2023-04-03T14:00:28;847.70;;;722.67;;
29280;SDS011;25048;49.590;11.026;2023-04-03T14:03:00;835.87;;;682.30;;
29280;SDS011;25048;49.590;11.026;2023-04-03T14:05:28;841.83;;;701.60;;
29280;SDS011;25048;49.590;11.026;2023-04-03T14:07:56;822.23;;;656.60;;
29280;SDS011;25048;49.590;11.026;2023-04-03T14:10:24;833.47;;;679.43;;
29280;SDS011;25048;49.590;11.026;2023-04-03T14:12:52;832.90;;;677.47;;
29280;SDS011;25048;49.590;11.026;2023-04-03T14:15:22;839.80;;;692.07;;
29280;SDS011;25048;49.590;11.026;2023-04-03T14:17:50;848.63;;;716.77;;
29280;SDS011;25048;49.590;11.026;2023-04-03T14:20:19;870.57;;;739.63;;
29280;SDS011;25048;49.590;11.026;2023-04-03T14:22:49;863.87;;;747.00;;
29280;SDS011;25048;49.590;11.026;2023-04-03T14:25:17;865.27;;;754.80;;
29280;SDS011;25048;49.590;11.026;2023-04-03T14:27:47;864.20;;;756.43;;
29280;SDS011;25048;49.590;11.026;2023-04-03T14:30:21;845.93;;;715.67;;
29280;SDS011;25048;49.590;11.026;2023-04-03T14:32:49;854.53;;;730.53;;
29280;SDS011;25048;49.590;11.026;2023-04-03T14:35:18;854.33;;;719.53;;
29280;SDS011;25048;49.590;11.026;2023-04-03T14:37:46;836.10;;;691.47;;
29280;SDS011;25048;49.590;11.026;2023-04-03T14:40:15;838.97;;;699.17;;
29280;SDS011;25048;49.590;11.026;2023-04-03T14:42:45;832.23;;;661.87;;
29280;SDS011;25048;49.590;11.026;2023-04-03T14:45:15;813.73;;;627.77;;
29280;SDS011;25048;49.590;11.026;2023-04-03T14:47:45;818.70;;;630.70;;
29280;SDS011;25048;49.590;11.026;2023-04-03T14:50:15;809.43;;;604.27;;
29280;SDS011;25048;49.590;11.026;2023-04-03T14:52:47;815.50;;;620.37;;
29280;SDS011;25048;49.590;11.026;2023-04-03T14:55:17;806.33;;;604.47;;
29280;SDS011;25048;49.590;11.026;2023-04-03T14:57:46;834.70;;;666.50;;
29280;SDS011;25048;49.590;11.026;2023-04-03T15:00:16;839.43;;;687.87;;
29280;SDS011;25048;49.590;11.026;2023-04-03T15:02:45;848.90;;;711.40;;
29280;SDS011;25048;49.590;11.026;2023-04-03T15:05:15;848.47;;;711.33;;
29280;SDS011;25048;49.590;11.026;2023-04-03T15:07:44;863.30;;;762.40;;
29280;SDS011;25048;49.590;11.026;2023-04-03T15:10:20;864.20;;;754.70;;
29280;SDS011;25048;49.590;11.026;2023-04-03T15:12:53;868.80;;;771.70;;
29280;SDS011;25048;49.590;11.026;2023-04-03T15:15:21;860.67;;;746.43;;
29280;SDS011;25048;49.590;11.026;2023-04-03T15:17:51;857.27;;;748.10;;
29280;SDS011;25048;49.590;11.026;2023-04-03T15:20:23;871.90;;;766.60;;
29280;SDS011;25048;49.590;11.026;2023-04-03T15:22:52;853.73;;;721.60;;
29280;SDS011;25048;49.590;11.026;2023-04-03T15:25:22;849.73;;;726.27;;
29280;SDS011;25048;49.590;11.026;2023-04-03T15:27:50;843.50;;;701.97;;
29280;SDS011;25048;49.590;11.026;2023-04-03T15:30:19;852.73;;;724.43;;